Weather reports worldwide

Advertisment
Besancon, France (7288): temperature & dewpoint: 19.04.2019 14:00:00 - 25.04.2019 14:00:00 (CEST)Besancon, France (7288): temperature 5cm: 19.04.2019 14:00:00 - 25.04.2019 14:00:00 (CEST)Besancon, France (7288): temperature -20cm & temperature -100cm: 19.04.2019 14:00:00 - 25.04.2019 14:00:00 (CEST)Besancon, France (7288): wind speed & gusts: 19.04.2019 14:00:00 - 25.04.2019 14:00:00 (CEST)Besancon, France (7288): wind direction: 19.04.2019 14:00:00 - 25.04.2019 14:00:00 (CEST)Besancon, France (7288): reduced air pressure: 19.04.2019 14:00:00 - 25.04.2019 14:00:00 (CEST)Besancon, France (7288): sunshine duration: 19.04.2019 14:00:00 - 25.04.2019 14:00:00 (CEST)Besancon, France (7288): precipitation: 19.04.2019 14:00:00 - 25.04.2019 14:00:00 (CEST)
Date & Time tt [°C] td [°C] tt 5cm [°C] tt -20cm [°C] tt -100cm [°C] ff [km/h] ff [kn] fx [km/h] fx [kn] dd ppp [hPa] sd [min] rr [mm]
25.04.2019 14:00:00 18,5 5,0 21,2 13,5 11,5 7 4 18 10 SW 1006,3 28 0,0
25.04.2019 13:00:00 17,9 5,5 22,4 13,4 11,5 6 3 19 10 WSW 1006,2 17 0,0
25.04.2019 12:00:00 16,7 6,8 23,5 13,3 11,5 9 5 20 11 W 1006,6 41 0,0
25.04.2019 11:00:00 16,4 6,5 20,7 13,3 11,4 5 3 9 5 W 1006,5 37 0,0
25.04.2019 10:00:00 14,0 6,4 12,7 13,4 11,5 4 2 9 5 NE 1006,2 36 0,0
25.04.2019 09:00:00 10,5 5,9 10,1 13,4 11,5 0 0 11 6 N 1006,6 0 0,0
25.04.2019 08:00:00 8,9 6,3 7,8 13,5 11,4 3 1 6 4 NE 1007,3 0 0,0
25.04.2019 07:00:00 8,2 5,5 6,9 13,6 11,4 0 0 10 5 N 1007,5 0 0,0
25.04.2019 06:00:00 7,7 5,7 5,8 13,7 11,4 2 1 6 3 NNE 1008,3 0 0,0
25.04.2019 05:00:00 7,7 5,7 6,1 13,8 11,4 0 0 5 3 N 1008,8 0 0,0
25.04.2019 04:00:00 7,7 5,3 5,5 13,9 11,4 2 1 9 5 NNE 1009,0 0 0,0
25.04.2019 03:00:00 7,1 5,2 3,2 14,1 11,4 3 1 5 3 NNE 1008,2 0 0,0
25.04.2019 02:00:00 7,7 5,8 4,4 14,1 11,4 4 2 6 3 NNE 1007,9 0 0,0
25.04.2019 01:00:00 8,7 6,1 5,1 14,3 11,4 2 1 5 3 NNE 1007,8 0 0,0
25.04.2019 00:00:00 10,8 4,9 6,7 14,4 11,4 0 0 12 6 N 1007,1 0 0,0
24.04.2019 23:00:00 10,0 5,8 5,3 14,5 11,4 0 0 10 5 N 1007,2 0 0,0
24.04.2019 22:00:00 10,5 7,0 5,4 14,6 11,4 0 0 11 6 N 1006,8 0 0,0
24.04.2019 21:00:00 10,8 7,1 6,1 14,6 11,4 0 0 10 6 N 1005,8 13 0,0
24.04.2019 20:00:00 12,9 7,6 13,3 14,6 11,3 0 0 13 7 N 1005,1 52 0,0
24.04.2019 19:00:00 13,0 7,0 9,8 14,7 11,3 3 2 14 7 WSW 1005,3 7 0,0
24.04.2019 18:00:00 10,6 6,0 8,6 14,7 11,3 2 1 20 11 SSE 1004,8 0 0,0
24.04.2019 17:00:00 9,7 7,1 8,5 14,8 11,3 4 2 52 28 SE 1006,6 0 1,0
24.04.2019 16:00:00 10,7 7,6 9,2 14,7 11,3 24 13 49 26 SW 1006,8 0 1,2
24.04.2019 15:00:00 11,4 9,3 10,7 14,7 11,3 19 10 64 35 SSW 1005,8 0 3,0
24.04.2019 14:00:00 13,6 10,6 12,4 14,6 11,3 19 10 47 26 SW 1004,0 0 0,4
24.04.2019 13:00:00 18,1 8,9 21,0 14,5 11,3 10 5 25 14 SW 1002,2 10 0,0
24.04.2019 12:00:00 18,3 8,3 20,1 14,5 11,3 8 4 16 9 SW 1002,2 6 0,0
24.04.2019 11:00:00 18,5 8,5 20,1 14,5 11,3 4 2 9 5 S 1001,9 3 0,0
24.04.2019 10:00:00 17,2 9,9 20,5 14,5 11,3 0 0 8 4 N 1001,5 30 0,0
24.04.2019 09:00:00 14,4 9,4 13,4 14,6 11,2 0 0 7 4 N 1001,6 58 0,0
24.04.2019 08:00:00 11,8 9,4 8,7 14,7 11,2 0 0 6 3 N 1001,6 34 0,0
24.04.2019 07:00:00 10,3 8,6 6,2 14,8 11,2 0 0 5 3 N 1001,4 0 0,0
24.04.2019 06:00:00 10,3 8,6 5,6 14,9 11,2 0 0 6 3 N 1001,1 0 0,0
24.04.2019 05:00:00 11,0 8,9 6,7 15,0 11,2 4 2 6 3 N 1000,6 0 0,0
24.04.2019 04:00:00 11,9 9,3 7,5 15,1 11,2 0 0 4 2 N 1000,5 0 0,0
24.04.2019 03:00:00 12,9 9,2 9,0 15,2 11,2 0 0 3 1 N 1000,5 0 0,0
24.04.2019 02:00:00 13,5 9,2 11,0 15,3 11,2 0 0 3 1 N 1000,1 0 0,0
24.04.2019 01:00:00 14,6 9,0 9,6 15,3 11,2 0 0 9 5 N 999,7 0 0,0
24.04.2019 00:00:00 14,0 8,8 8,5 15,4 11,1 3 1 8 4 SSW 999,4 0 0,0
23.04.2019 23:00:00 16,1 8,6 11,4 15,4 11,1 2 1 14 7 S 998,7 0 0,0
23.04.2019 22:00:00 16,6 7,8 11,7 15,4 11,1 0 0 6 3 N 998,2 0 0,0
23.04.2019 21:00:00 18,3 6,5 14,0 15,3 11,1 2 1 6 3 W 997,4 11 0,0
23.04.2019 20:00:00 19,8 6,2 17,7 15,3 11,1 3 2 9 5 N 996,5 43 0,0
23.04.2019 19:00:00 21,2 6,7 23,6 15,2 11,1 5 3 14 8 NNW 996,1 52 0,0
23.04.2019 18:00:00 21,3 7,9 26,7 15,0 11,1 4 2 17 9 N 996,0 60 0,0
23.04.2019 17:00:00 21,3 7,5 25,3 14,8 11,1 9 5 17 9 WNW 996,3 28 0,0
23.04.2019 16:00:00 21,8 8,0 25,9 14,6 11,1 6 4 21 11 W 996,5 30 0,0
23.04.2019 15:00:00 21,4 7,2 24,4 14,5 11,0 8 4 29 16 WSW 996,8 51 0,0
23.04.2019 14:00:00 20,5 7,1 23,8 14,4 11,0 13 7 35 19 SW 996,8 27 0,0
23.04.2019 13:00:00 19,7 7,4 21,0 14,3 11,0 12 7 28 15 SW 997,1 18 0,0
23.04.2019 12:00:00 18,1 7,5 19,9 14,3 11,0 10 5 26 14 SW 997,3 0 0,0
23.04.2019 11:00:00 17,7 6,8 17,5 14,4 11,0 4 2 15 8 SSW 997,2 0 0,0
23.04.2019 10:00:00 16,6 6,4 15,5 14,4 11,0 7 4 14 7 SW 997,0 0 0,0
23.04.2019 09:00:00 15,6 6,3 13,1 14,5 11,0 3 1 9 5 SSW 997,3 0 0,0
23.04.2019 08:00:00 14,0 5,6 10,1 14,6 11,0 3 1 8 4 SSE 997,2 0 0,0
23.04.2019 07:00:00 12,1 6,8 9,4 14,7 11,0 0 0 3 2 N 997,4 0 0,0
23.04.2019 06:00:00 11,7 6,8 8,3 14,7 10,9 2 1 5 3 NNE 997,5 0 0,0
23.04.2019 05:00:00 11,8 6,9 8,4 14,8 10,9 0 0 4 2 N 997,5 0 0,0
23.04.2019 04:00:00 11,9 6,6 8,7 14,9 10,9 0 0 9 5 N 997,9 0 0,0
23.04.2019 03:00:00 12,4 7,1 8,7 15,0 10,9 4 2 9 5 NNE 997,9 0 0,0
23.04.2019 02:00:00 14,1 6,7 8,9 15,1 10,9 0 0 4 2 N 997,6 0 0,0
23.04.2019 01:00:00 15,2 5,7 9,9 15,1 10,9 0 0 4 2 N 997,8 0 0,0
23.04.2019 00:00:00 16,3 5,6 11,0 15,2 10,9 2 1 5 3 NNE 998,0 0 0,0
22.04.2019 23:00:00 16,6 5,5 11,5 15,2 10,9 0 0 8 5 N 998,2 0 0,0
22.04.2019 22:00:00 17,2 5,8 11,6 15,2 10,9 0 0 6 4 N 998,7 0 0,0
22.04.2019 21:00:00 18,3 5,5 13,2 15,1 10,9 2 1 13 7 NE 998,8 0 0,0
22.04.2019 20:00:00 20,3 5,5 16,9 15,0 10,8 3 2 18 10 NE 998,9 0 0,0
22.04.2019 19:00:00 22,6 5,1 21,5 14,9 10,8 10 5 24 13 NNE 999,0 19 0,0
22.04.2019 18:00:00 24,1 4,4 26,4 14,7 10,8 10 5 24 13 NNE 999,4 52 0,0
22.04.2019 17:00:00 24,2 3,5 29,9 14,5 10,8 13 7 25 13 N 999,6 60 0,0
22.04.2019 16:00:00 23,8 2,6 26,0 14,4 10,8 12 7 26 14 NNE 1000,4 42 0,0
22.04.2019 15:00:00 23,3 4,3 30,5 14,2 10,8 13 7 25 14 N 1001,6 57 0,0
22.04.2019 14:00:00 22,6 4,6 26,9 14,0 10,8 13 7 21 11 N 1002,5 22 0,0
22.04.2019 13:00:00 22,6 5,1 27,8 13,9 10,8 5 3 22 12 NNE 1003,2 41 0,0
22.04.2019 12:00:00 21,6 4,2 28,5 13,9 10,8 6 3 19 10 NNE 1004,5 60 0,0
22.04.2019 11:00:00 18,2 5,7 22,6 13,9 10,7 7 4 14 8 NNE 1005,6 60 0,0
22.04.2019 10:00:00 15,3 6,0 15,5 14,0 10,7 4 2 10 5 ESE 1007,0 51 0,0
22.04.2019 09:00:00 11,7 6,2 10,2 14,1 10,7 2 1 9 5 N 1008,1 32 0,0
22.04.2019 08:00:00 10,0 6,2 7,3 14,2 10,7 0 0 5 3 N 1009,2 14 0,0
22.04.2019 07:00:00 9,8 6,0 6,9 14,3 10,7 0 0 5 3 N 1009,6 0 0,0
22.04.2019 06:00:00 9,9 5,7 7,2 14,4 10,7 2 1 8 5 NNE 1009,9 0 0,0
22.04.2019 05:00:00 9,9 5,9 7,3 14,5 10,7 0 0 5 3 N 1010,9 0 0,0
22.04.2019 04:00:00 9,3 5,3 5,5 14,6 10,7 3 2 6 3 NNE 1011,4 0 0,0
22.04.2019 03:00:00 9,5 5,7 5,2 14,7 10,7 0 0 5 3 N 1011,9 0 0,0
22.04.2019 02:00:00 10,6 6,0 5,7 14,8 10,7 3 2 5 3 NNE 1012,1 0 0,0
22.04.2019 01:00:00 11,5 6,0 6,2 14,9 10,6 0 0 6 4 N 1012,5 0 0,0
22.04.2019 00:00:00 13,0 6,8 7,7 15,0 10,7 0 0 4 2 N 1013,0 0 0,0
21.04.2019 23:00:00 14,5 6,6 9,0 15,0 10,6 2 1 5 3 NNE 1013,1 0 0,0
21.04.2019 22:00:00 15,6 5,8 11,1 14,9 10,6 2 1 4 2 NE 1013,4 0 0,0
21.04.2019 21:00:00 16,9 5,2 10,9 14,9 10,6 3 1 5 3 NNE 1013,4 0 0,0
21.04.2019 20:00:00 19,6 3,3 15,4 14,8 10,6 0 0 6 4 N 1013,0 16 0,0
21.04.2019 19:00:00 20,9 3,1 21,1 14,6 10,6 6 4 14 8 NNE 1013,1 30 0,0
21.04.2019 18:00:00 21,3 6,8 23,0 14,5 10,6 6 4 13 7 NNE 1013,7 5 0,0
21.04.2019 17:00:00 21,7 1,9 24,2 14,2 10,5 6 3 13 7 N 1014,3 14 0,0
21.04.2019 16:00:00 21,4 5,3 24,5 14,0 10,5 5 3 17 9 NW 1014,9 31 0,0
21.04.2019 15:00:00 22,4 5,3 31,3 13,8 10,5 6 4 17 9 W 1015,6 60 0,0
21.04.2019 14:00:00 20,8 7,8 28,6 13,6 10,5 6 3 16 9 WNW 1016,4 60 0,0
21.04.2019 13:00:00 20,5 5,3 25,9 13,6 10,5 3 1 11 6 S 1016,8 36 0,0
21.04.2019 12:00:00 18,7 4,8 22,3 13,6 10,5 3 1 6 4 ESE 1017,6 16 0,0
21.04.2019 11:00:00 16,7 5,6 21,1 13,6 10,5 0 0 7 4 N 1018,2 0 0,0
21.04.2019 10:00:00 15,9 5,5 15,5 13,6 10,4 4 2 8 4 SSW 1018,4 42 0,0
21.04.2019 09:00:00 12,7 4,1 11,1 13,7 10,5 3 1 7 4 SSW 1019,0 0 0,0
21.04.2019 08:00:00 11,4 4,6 7,6 13,9 10,5 2 1 6 3 ESE 1019,1 0 0,0
21.04.2019 07:00:00 10,9 4,1 6,7 13,9 10,4 3 1 4 2 SE 1018,9 0 0,0
21.04.2019 06:00:00 11,3 3,6 6,3 14,1 10,4 3 1 4 2 SSE 1019,0 0 0,0
21.04.2019 05:00:00 11,6 3,6 6,2 14,2 10,4 0 0 4 2 N 1019,5 0 0,0
21.04.2019 04:00:00 12,0 3,5 6,7 14,3 10,4 0 0 4 2 N 1019,6 0 0,0
21.04.2019 03:00:00 12,4 4,4 6,9 14,4 10,4 0 0 2 1 N 1020,0 0 0,0
21.04.2019 02:00:00 12,1 3,8 6,0 14,5 10,4 0 0 4 2 N 1020,5 0 0,0
21.04.2019 01:00:00 12,2 4,2 5,8 14,6 10,4 0 0 3 2 N 1020,9 0 0,0
21.04.2019 00:00:00 12,6 3,8 5,9 14,6 10,4 0 0 4 2 N 1021,1 0 0,0
20.04.2019 23:00:00 14,0 3,4 6,6 14,7 10,3 0 0 4 2 N 1021,2 0 0,0
20.04.2019 22:00:00 16,1 2,8 8,1 14,6 10,3 0 0 8 4 N 1021,2 0 0,0
20.04.2019 21:00:00 17,4 3,6 10,1 14,6 10,3 4 2 14 8 NNE 1020,6 8 0,0
20.04.2019 20:00:00 21,4 3,1 18,6 14,5 10,3 7 4 29 16 NE 1019,9 53 0,0
20.04.2019 19:00:00 23,1 4,1 25,1 14,3 10,3 6 4 32 17 NE 1019,8 60 0,0
20.04.2019 18:00:00 24,1 3,9 27,2 14,1 10,3 6 3 34 18 NE 1019,9 60 0,0
20.04.2019 17:00:00 24,4 3,1 30,4 13,9 10,3 9 5 37 20 NE 1020,3 60 0,0
20.04.2019 16:00:00 24,0 3,8 29,3 13,6 10,3 8 4 31 17 N 1020,9 60 0,0
20.04.2019 15:00:00 23,9 1,5 32,7 13,4 10,2 6 3 29 16 NE 1021,6 60 0,0
20.04.2019 14:00:00 23,7 2,5 32,1 13,2 10,2 6 3 31 17 ENE 1022,4 60 0,0
20.04.2019 13:00:00 21,7 6,0 32,0 13,1 10,2 8 4 21 11 WNW 1023,1 60 0,0
20.04.2019 12:00:00 20,4 5,6 30,5 13,0 10,2 5 3 12 7 N 1023,9 60 0,0
20.04.2019 11:00:00 18,6 6,4 27,0 13,0 10,2 3 2 7 4 N 1024,8 60 0,0
20.04.2019 10:00:00 15,3 8,1 15,4 13,1 10,2 0 0 7 4 N 1025,4 36 0,0
20.04.2019 09:00:00 10,8 7,8 9,0 13,3 10,2 0 0 4 2 N 1026,2 7 0,0
20.04.2019 08:00:00 9,0 6,6 5,5 13,4 10,2 0 0 5 3 N 1026,1 21 0,0
20.04.2019 07:00:00 8,9 6,5 4,7 13,5 10,1 0 0 4 2 N 1025,9 0 0,0
20.04.2019 06:00:00 8,8 6,4 3,8 13,6 10,2 0 0 4 2 N 1025,6 0 0,0
20.04.2019 05:00:00 8,5 6,1 3,8 13,7 10,2 0 0 3 1 N 1025,8 0 0,0
20.04.2019 04:00:00 8,8 6,2 4,4 13,8 10,1 0 0 4 2 N 1025,9 0 0,0
20.04.2019 03:00:00 10,2 6,3 5,5 13,9 10,1 4 2 6 3 NNE 1025,7 0 0,0
20.04.2019 02:00:00 10,9 6,6 6,2 14,0 10,1 0 0 4 2 N 1026,1 0 0,0
20.04.2019 01:00:00 11,0 6,7 6,7 14,1 10,1 0 0 5 3 N 1026,1 0 0,0
20.04.2019 00:00:00 11,9 6,8 6,5 14,1 10,1 3 2 5 3 NNE 1026,1 0 0,0
19.04.2019 23:00:00 12,9 7,3 7,4 14,2 10,1 2 1 8 4 NE 1026,2 0 0,0
19.04.2019 22:00:00 15,0 6,8 8,6 14,1 10,0 0 0 8 4 N 1025,8 0 0,0
19.04.2019 21:00:00 16,7 7,1 10,5 14,0 10,0 0 0 5 3 N 1025,5 0 0,0
19.04.2019 20:00:00 19,1 6,9 16,7 13,9 10,0 3 2 16 9 ESE 1024,8 43 0,0
19.04.2019 19:00:00 21,0 6,5 21,3 13,7 10,0 6 3 26 14 ENE 1024,5 53 0,0
19.04.2019 18:00:00 23,1 5,9 28,2 13,5 10,0 6 4 21 11 N 1023,7 60 0,0
19.04.2019 17:00:00 23,1 5,0 30,1 13,2 10,0 6 3 26 14 NNW 1023,7 60 0,0
19.04.2019 16:00:00 22,6 5,5 28,9 12,9 10,0 6 3 18 10 NNW 1024,0 60 0,0
19.04.2019 15:00:00 22,2 5,2 30,9 12,7 10,0 5 3 19 10 NW 1024,5 60 0,0
19.04.2019 14:00:00 21,4 5,3 31,2 12,5 9,9 7 4 16 8 NW 1024,9 60 0,0

tt = temperature
td = dewpoint
tt 5cm = temperature 5cm
tt -20cm = temperature -20cm
tt -100cm = temperature -100cm
ff = wind speed
fx = gusts
dd = wind direction
ppp = reduced air pressure
sd = sunshine duration
rr = precipitation

Next stations